首页
METAR-TAF:

METAR-TAF

机场 :

Earlton, 安大略省, 加拿大

纬度: 47-42N, 经度: 079-51W, 海拔: 243米

当前天气观测

该预报发布于1小时和13分钟前的20:00 UTC
风速7节,风向南转南东,在东转东南之间变化
温度 22°C
湿度 60%
气压 1024 hPa
能見度: 14.5公里
天空无云

METAR: CYXR 182000Z AUTO 15007KT 120V190 9SM CLR 22/14 A3024 RMK SLP246 DENSITY ALT 1500FT

时间: 17:13 (21:13 UTC)

预报

该预报发布于3小时和32分钟前的17:41 UTC
预报有效从18日的 18点(UTC)到 18日的 24点(UTC)
风速6节,风向东南
能見度: 10公里
多云层高于1200英尺
短暂存在
从 18日的 18点(UTC)到 18日的 20点(UTC)
散云层高于1200英尺
从 18日的 2000点(UTC)
风速8节,风向南转南东
能見度: 10公里
散云层高于7000英尺

TAF: CYXR 181741Z 1818/1824 14006KT P6SM BKN012 TEMPO 1818/1820 SCT012 FM182000 16008KT P6SM SCT070 RMK FCST BASED ON AUTO OBS. NXT FCST WILL BE ISSUED AT 191145Z

超过4000个机场的气象观测和天气预报(METAR&TAF报告)。

可查询的气象台以黄色和红色小点在地图上表示。

将鼠标移到小点上方,可查看气象台名称。

然后点击查看天气观测和预报。

如需切换地图:点击带黑十字的绿色按钮放大地图;点击带横线的绿色按钮缩小地图;或者点击绿色箭头查看邻近地区的地图。


METAR-TAF: